Eendracht — PDVN — position and weather

sailwx.info

Track history (hours):
 
Tides and Currents Weather Stations Pressure Air Temp Water Temp Dewpoint Dewpoint Depression Visibility Wind Speed Wind Dir Waves Ship Positions

Eendracht (Netherlands)

Last reported at 2016-May-27 17:12 UTC. Time now 2016-May-27 18:11 UTC.
Position N 52°57' E 004°47'.

Length 59 m; beam 12 m; draft 5 m.

MMSI: 244543000.

Date/timePositionNaut miles runAvg speedWind from/ knotsBaromVisibWave heightAir tempDewpointWater temp
2016-May-27 17:12N 52°57' E 004°47'0 0.0
2016-May-27 16:18N 52°57' E 004°47'0 0.0
2016-May-27 15:33N 52°57' E 004°47'0 0.0
2016-May-27 14:33N 52°57' E 004°47'3 3.2
2016-May-27 13:33N 53°00' E 004°49'0 0.4
2016-May-27 12:33N 53°00' E 004°49'3 2.9
2016-May-27 11:33N 52°58' E 004°45'5 5.4
2016-May-27 10:32N 52°54' E 004°39'4 3.8
2016-May-27 09:33N 52°54' E 004°33'5 4.9
2016-May-27 08:33N 52°56' E 004°26'7 6.8
2016-May-27 07:33N 52°50' E 004°30'8 8.1
2016-May-27 06:33N 52°42' E 004°34'4 3.6
2016-May-27 05:33N 52°39' E 004°32'3 3.4
2016-May-27 04:33N 52°39' E 004°27'4 3.9
2016-May-27 03:33N 52°37' E 004°20'4 4.0
2016-May-27 02:33N 52°34' E 004°25'4 3.7
2016-May-27 01:33N 52°31' E 004°29'4 4.1
2016-May-27 00:34N 52°28' E 004°31'4 3.8
2016-May-26 23:33N 52°26' E 004°26'4 3.7
2016-May-26 22:33N 52°22' E 004°24'4 3.8
2016-May-26 21:33N 52°19' E 004°24'4 3.7
2016-May-26 20:33N 52°15' E 004°24'4 3.6
2016-May-26 19:33N 52°13' E 004°19'3 3.5
2016-May-26 18:33N 52°10' E 004°19'3 2.7
2016-May-26 17:32N 52°08' E 004°15'0 0.0
2016-May-26 16:33N 52°08' E 004°15'0 0.5
2016-May-26 15:33N 52°08' E 004°15'5 4.6
2016-May-26 14:33N 52°04' E 004°10'2 1.5
2016-May-26 13:33N 52°03' E 004°08'2 1.9
2016-May-26 12:33N 52°02' E 004°06'2 2.0
2016-May-26 11:30N 52°00' E 004°04'0 0.0
2016-May-26 10:33N 52°00' E 004°04'5 5.3
2016-May-26 09:34N 51°57' E 004°11'9 8.9
2016-May-26 08:33N 51°54' E 004°24'2 1.8
2016-May-26 07:32N 51°54' E 004°27'0 0.0
2016-May-26 06:32N 51°54' E 004°27'0 0.0
2016-May-26 05:32N 51°54' E 004°27'0 0.0
2016-May-26 04:32N 51°54' E 004°27'0 0.0
2016-May-26 03:32N 51°54' E 004°27'0 0.0
2016-May-26 02:32N 51°54' E 004°27'0 0.0
2016-May-26 01:32N 51°54' E 004°27'0 0.0
2016-May-26 00:32N 51°54' E 004°27'0 0.0
2016-May-25 23:32N 51°54' E 004°27'0 0.0
2016-May-25 22:32N 51°54' E 004°27'0 0.0
2016-May-25 21:32N 51°54' E 004°27'0 0.0
2016-May-25 20:32N 51°54' E 004°27'0 0.0
2016-May-25 19:32N 51°54' E 004°27'0 0.0
2016-May-25 18:31N 51°54' E 004°27'0 0.0
2016-May-25 17:31N 51°54' E 004°27'0 0.0
2016-May-25 16:31N 51°54' E 004°27'0 0.0
2016-May-25 15:31N 51°54' E 004°27'0 0.0
2016-May-25 14:31N 51°54' E 004°27'0 0.0
2016-May-25 13:31N 51°54' E 004°27'0 0.0
2016-May-25 12:31N 51°54' E 004°27'0 0.0
2016-May-25 11:31N 51°54' E 004°27'2 2.4
2016-May-25 10:33N 51°54' E 004°24'5 5.5
2016-May-25 09:33N 51°55' E 004°15'5 5.2
2016-May-25 08:33N 51°58' E 004°08'3 3.3
2016-May-25 07:33N 52°00' E 004°04'0 0.1
2016-May-25 06:33N 52°00' E 004°05'4 4.0
2016-May-25 05:34N 52°03' E 004°09'7 6.5
2016-May-25 04:33N 52°09' E 004°15'2 1.8
2016-May-25 03:33N 52°08' E 004°12'5 5.1
2016-May-25 02:33N 52°08' E 004°04'4 3.9
2016-May-25 01:33N 52°09' E 003°58'4 4.0
2016-May-25 00:33N 52°10' E 003°51'5 4.9
2016-May-24 23:34N 52°11' E 003°44'6 5.5
2016-May-24 22:33N 52°12' E 003°35'8 1.3
2016-May-24 16:18N 52°20' E 003°33'5 7.0
2016-May-24 15:33N 52°21' E 003°41'8 7.7
2016-May-24 14:34N 52°23' E 003°53'8 7.5
2016-May-24 13:33N 52°29' E 004°02'7 7.2
2016-May-24 12:32N 52°35' E 004°08'10 9.9
2016-May-24 11:33N 52°40' E 004°21'9 9.2
2016-May-24 10:33N 52°48' E 004°30'7 7.2
2016-May-24 09:32N 52°53' E 004°38'7 7.1
2016-May-24 08:33N 52°59' E 004°45'2 1.6
2016-May-24 07:33N 52°59' E 004°48'0 0.2
2016-May-24 06:31N 52°59' E 004°48'1 0.2
2016-May-24 00:05N 52°58' E 004°47'0 0.0
2016-May-23 15:32N 52°58' E 004°47'2 2.3
2016-May-23 14:33N 52°58' E 004°43'4 4.4
2016-May-23 13:33N 52°54' E 004°39'4 4.3
2016-May-23 12:33N 52°50' E 004°36'5 5.0
2016-May-23 11:33N 52°47' E 004°30'1 1.3
2016-May-23 10:34N 52°47' E 004°27'2 2.3
2016-May-23 09:34N 52°49' E 004°25'1 0.7
2016-May-23 08:33N 52°49' E 004°26'2 1.7
2016-May-23 07:33N 52°49' E 004°28'3 3.0
2016-May-23 06:33N 52°47' E 004°25'11 9.1
2016-May-23 05:23N 52°43' E 004°09'28 4.8
2016-May-22 23:29N 52°26' E 003°31'7 7.5
2016-May-22 22:32N 52°29' E 003°41'5 4.6
2016-May-22 21:33N 52°31' E 003°48'3 3.2
2016-May-22 20:33N 52°33' E 003°53'4 3.7
2016-May-22 19:33N 52°33' E 003°59'4 4.3
2016-May-22 18:33N 52°33' E 004°06'3 3.3
2016-May-22 17:33N 52°32' E 004°11'4 3.8
2016-May-22 16:33N 52°30' E 004°16'3 2.6
2016-May-22 15:33N 52°28' E 004°13'4 4.5
2016-May-22 14:33N 52°25' E 004°08'5 5.1
2016-May-22 13:33N 52°21' E 004°03'4 3.6
2016-May-22 12:33N 52°18' E 004°03'2 2.5
2016-May-22 11:34N 52°16' E 004°05'6 6.4
2016-May-22 10:33N 52°11' E 004°11'5 5.1
2016-May-22 09:31N 52°06' E 004°16'0 0.0
2016-May-22 08:31N 52°06' E 004°16'0 0.0
2016-May-22 07:34N 52°06' E 004°16'0 0.0
2016-May-22 06:34N 52°06' E 004°16'0 0.0
2016-May-22 05:33N 52°06' E 004°16'0 0.0
2016-May-22 04:33N 52°06' E 004°16'0 0.0
2016-May-22 03:33N 52°06' E 004°16'0 0.0
2016-May-22 02:33N 52°06' E 004°16'0 0.0
2016-May-22 01:33N 52°06' E 004°16'0 0.0
2016-May-22 00:30N 52°06' E 004°16'0 0.0
2016-May-21 23:33N 52°06' E 004°16'0 0.0
2016-May-21 22:33N 52°06' E 004°16'0 0.0
2016-May-21 21:33N 52°06' E 004°16'0 0.0
2016-May-21 20:33N 52°06' E 004°16'0 0.0
2016-May-21 19:33N 52°06' E 004°16'0 0.0
2016-May-21 18:33N 52°06' E 004°16'0 0.0
2016-May-21 17:33N 52°06' E 004°16'0 0.0
2016-May-21 16:33N 52°06' E 004°16'0 0.0
2016-May-21 15:33N 52°06' E 004°16'0 0.0
2016-May-21 14:33N 52°06' E 004°16'3 2.6
2016-May-21 13:33N 52°07' E 004°12'7 7.3
2016-May-21 12:33N 52°07' E 004°00'7 6.5
2016-May-21 11:33N 52°07' E 003°49'6 5.5
2016-May-21 10:33N 52°06' E 003°58'8 8.4
2016-May-21 09:34N 52°06' E 004°12'2 2.3
2016-May-21 08:33N 52°06' E 004°16'0 0.0
2016-May-21 07:33N 52°06' E 004°16'0 0.0
2016-May-21 06:33N 52°06' E 004°16'0 0.0
2016-May-21 05:33N 52°06' E 004°16'0 0.0
2016-May-21 04:33N 52°06' E 004°16'0 0.0
2016-May-21 03:33N 52°06' E 004°16'0 0.0
2016-May-21 02:33N 52°06' E 004°16'0 0.0
2016-May-21 01:33N 52°06' E 004°16'0 0.0
2016-May-21 00:30N 52°06' E 004°16'0 0.0
2016-May-20 23:33N 52°06' E 004°16'0 0.0
2016-May-20 22:33N 52°06' E 004°16'0 0.0
2016-May-20 21:33N 52°06' E 004°16'0 0.0
2016-May-20 20:33N 52°06' E 004°16'0 0.0
2016-May-20 19:33N 52°06' E 004°16'0 0.0
2016-May-20 18:33N 52°06' E 004°16'0 0.0
2016-May-20 17:33N 52°06' E 004°16'0 0.0
2016-May-20 16:33N 52°06' E 004°16'0 0.0
2016-May-20 15:30N 52°06' E 004°16'0 0.0
2016-May-20 14:33N 52°06' E 004°16'0 0.0
2016-May-20 13:33N 52°06' E 004°16'0 0.0
2016-May-20 12:33N 52°06' E 004°16'1 0.9
2016-May-20 11:33N 52°07' E 004°15'0 0.2
2016-May-20 10:33N 52°07' E 004°15'1 1.1
2016-May-20 09:34N 52°08' E 004°15'1 1.4
2016-May-20 08:33N 52°07' E 004°15'1 0.7
2016-May-20 07:33N 52°07' E 004°15'4 3.7
2016-May-20 06:33N 52°10' E 004°10'1 0.8
2016-May-20 05:33N 52°10' E 004°10'3 2.6
2016-May-20 04:33N 52°09' E 004°13'8 8.1
2016-May-20 03:33N 52°15' E 004°04'10 9.9
2016-May-20 02:33N 52°20' E 003°50'11 9.6
2016-May-20 01:25N 52°24' E 003°33'6 1.9
2016-May-19 22:33N 52°30' E 003°36'8 8.1
2016-May-19 21:33N 52°31' E 003°49'8 8.5
2016-May-19 20:33N 52°30' E 004°03'7 7.4
2016-May-19 19:33N 52°30' E 004°15'5 4.6
2016-May-19 18:33N 52°30' E 004°22'2 2.1
2016-May-19 17:33N 52°30' E 004°26'3 3.2
2016-May-19 16:33N 52°27' E 004°28'2 1.6
2016-May-19 15:33N 52°25' E 004°28'5 4.8
2016-May-19 14:33N 52°30' E 004°26'4 4.1
2016-May-19 13:33N 52°34' E 004°24'2 2.5
2016-May-19 12:33N 52°36' E 004°24'5 5.1
2016-May-19 11:33N 52°35' E 004°32'5 5.2
2016-May-19 10:34N 52°40' E 004°33'4 4.3
2016-May-19 09:33N 52°44' E 004°34'4 4.0
2016-May-19 08:33N 52°48' E 004°36'6 5.9
2016-May-19 07:33N 52°54' E 004°39'7 6.4
2016-May-19 06:28N 52°58' E 004°47'0 0.2
2016-May-19 04:26N 52°58' E 004°47'0 0.0
2016-May-19 03:17N 52°58' E 004°47'0 0.0
2016-May-19 02:32N 52°58' E 004°47'0 0.0
2016-May-19 00:14N 52°58' E 004°47'0 0.0
2016-May-18 23:29N 52°58' E 004°47'0 0.0
2016-May-18 22:32N 52°58' E 004°47'0 0.0
2016-May-18 21:32N 52°58' E 004°47'0 0.0
2016-May-18 20:32N 52°58' E 004°47'0 0.0
2016-May-18 18:08N 52°58' E 004°47'0 0.0
2016-May-18 17:29N 52°58' E 004°47'0 0.0
2016-May-18 16:32N 52°58' E 004°47'0 0.0
2016-May-18 13:19N 52°58' E 004°47'2 2.8
2016-May-18 12:28N 52°60' E 004°48'0 0.4
2016-May-18 11:29N 53°00' E 004°49'0 0.5
2016-May-18 10:33N 52°60' E 004°48'0 0.1
2016-May-18 09:32N 52°60' E 004°48'0 0.1
2016-May-18 08:33N 53°00' E 004°48'4 3.8
2016-May-18 07:27N 52°57' E 004°43'5 5.5
2016-May-18 06:32N 52°53' E 004°38'3 2.7
2016-May-18 05:33N 52°52' E 004°34'5 4.6
2016-May-18 04:29N 52°55' E 004°27'30 4.9
2016-May-17 22:25N 52°49' E 003°39'10 5.4
2016-May-17 20:33N 52°41' E 003°48'4 3.9
2016-May-17 19:29N 52°37' E 003°53'3 3.1
2016-May-17 18:33N 52°35' E 003°55'4 3.6
2016-May-17 17:33N 52°32' E 003°58'  
Track history (hours):
 
Tides and Currents Weather Stations Pressure Air Temp Water Temp Dewpoint Dewpoint Depression Visibility Wind Speed Wind Dir Waves Ship Positions

Eendracht (Netherlands)

Last reported at 2016-May-27 17:12 UTC. Time now 2016-May-27 18:11 UTC.
Position N 52°57' E 004°47'.

Length 59 m; beam 12 m; draft 5 m.

MMSI: 244543000.

Date/timePositionNaut miles runAvg speedWind from/ knotsBaromVisibWave heightAir tempDewpointWater temp
2016-May-27 17:12N 52°57' E 004°47'0 0.0
2016-May-27 16:18N 52°57' E 004°47'0 0.0
2016-May-27 15:33N 52°57' E 004°47'0 0.0
2016-May-27 14:33N 52°57' E 004°47'3 3.2
2016-May-27 13:33N 53°00' E 004°49'0 0.4
2016-May-27 12:33N 53°00' E 004°49'3 2.9
2016-May-27 11:33N 52°58' E 004°45'5 5.4
2016-May-27 10:32N 52°54' E 004°39'4 3.8
2016-May-27 09:33N 52°54' E 004°33'5 4.9
2016-May-27 08:33N 52°56' E 004°26'7 6.8
2016-May-27 07:33N 52°50' E 004°30'8 8.1
2016-May-27 06:33N 52°42' E 004°34'4 3.6
2016-May-27 05:33N 52°39' E 004°32'3 3.4
2016-May-27 04:33N 52°39' E 004°27'4 3.9
2016-May-27 03:33N 52°37' E 004°20'4 4.0
2016-May-27 02:33N 52°34' E 004°25'4 3.7
2016-May-27 01:33N 52°31' E 004°29'4 4.1
2016-May-27 00:34N 52°28' E 004°31'4 3.8
2016-May-26 23:33N 52°26' E 004°26'4 3.7
2016-May-26 22:33N 52°22' E 004°24'4 3.8
2016-May-26 21:33N 52°19' E 004°24'4 3.7
2016-May-26 20:33N 52°15' E 004°24'4 3.6
2016-May-26 19:33N 52°13' E 004°19'3 3.5
2016-May-26 18:33N 52°10' E 004°19'3 2.7
2016-May-26 17:32N 52°08' E 004°15'0 0.0
2016-May-26 16:33N 52°08' E 004°15'0 0.5
2016-May-26 15:33N 52°08' E 004°15'5 4.6
2016-May-26 14:33N 52°04' E 004°10'2 1.5
2016-May-26 13:33N 52°03' E 004°08'2 1.9
2016-May-26 12:33N 52°02' E 004°06'2 2.0
2016-May-26 11:30N 52°00' E 004°04'0 0.0
2016-May-26 10:33N 52°00' E 004°04'5 5.3
2016-May-26 09:34N 51°57' E 004°11'9 8.9
2016-May-26 08:33N 51°54' E 004°24'2 1.8
2016-May-26 07:32N 51°54' E 004°27'0 0.0
2016-May-26 06:32N 51°54' E 004°27'0 0.0
2016-May-26 05:32N 51°54' E 004°27'0 0.0
2016-May-26 04:32N 51°54' E 004°27'0 0.0
2016-May-26 03:32N 51°54' E 004°27'0 0.0
2016-May-26 02:32N 51°54' E 004°27'0 0.0
2016-May-26 01:32N 51°54' E 004°27'0 0.0
2016-May-26 00:32N 51°54' E 004°27'0 0.0
2016-May-25 23:32N 51°54' E 004°27'0 0.0
2016-May-25 22:32N 51°54' E 004°27'0 0.0
2016-May-25 21:32N 51°54' E 004°27'0 0.0
2016-May-25 20:32N 51°54' E 004°27'0 0.0
2016-May-25 19:32N 51°54' E 004°27'0 0.0
2016-May-25 18:31N 51°54' E 004°27'0 0.0
2016-May-25 17:31N 51°54' E 004°27'0 0.0
2016-May-25 16:31N 51°54' E 004°27'0 0.0
2016-May-25 15:31N 51°54' E 004°27'0 0.0
2016-May-25 14:31N 51°54' E 004°27'0 0.0
2016-May-25 13:31N 51°54' E 004°27'0 0.0
2016-May-25 12:31N 51°54' E 004°27'0 0.0
2016-May-25 11:31N 51°54' E 004°27'2 2.4
2016-May-25 10:33N 51°54' E 004°24'5 5.5
2016-May-25 09:33N 51°55' E 004°15'5 5.2
2016-May-25 08:33N 51°58' E 004°08'3 3.3
2016-May-25 07:33N 52°00' E 004°04'0 0.1
2016-May-25 06:33N 52°00' E 004°05'4 4.0
2016-May-25 05:34N 52°03' E 004°09'7 6.5
2016-May-25 04:33N 52°09' E 004°15'2 1.8
2016-May-25 03:33N 52°08' E 004°12'5 5.1
2016-May-25 02:33N 52°08' E 004°04'4 3.9
2016-May-25 01:33N 52°09' E 003°58'4 4.0
2016-May-25 00:33N 52°10' E 003°51'5 4.9
2016-May-24 23:34N 52°11' E 003°44'6 5.5
2016-May-24 22:33N 52°12' E 003°35'8 1.3
2016-May-24 16:18N 52°20' E 003°33'5 7.0
2016-May-24 15:33N 52°21' E 003°41'8 7.7
2016-May-24 14:34N 52°23' E 003°53'8 7.5
2016-May-24 13:33N 52°29' E 004°02'7 7.2
2016-May-24 12:32N 52°35' E 004°08'10 9.9
2016-May-24 11:33N 52°40' E 004°21'9 9.2
2016-May-24 10:33N 52°48' E 004°30'7 7.2
2016-May-24 09:32N 52°53' E 004°38'7 7.1
2016-May-24 08:33N 52°59' E 004°45'2 1.6
2016-May-24 07:33N 52°59' E 004°48'0 0.2
2016-May-24 06:31N 52°59' E 004°48'1 0.2
2016-May-24 00:05N 52°58' E 004°47'0 0.0
2016-May-23 15:32N 52°58' E 004°47'2 2.3
2016-May-23 14:33N 52°58' E 004°43'4 4.4
2016-May-23 13:33N 52°54' E 004°39'4 4.3
2016-May-23 12:33N 52°50' E 004°36'5 5.0
2016-May-23 11:33N 52°47' E 004°30'1 1.3
2016-May-23 10:34N 52°47' E 004°27'2 2.3
2016-May-23 09:34N 52°49' E 004°25'1 0.7
2016-May-23 08:33N 52°49' E 004°26'2 1.7
2016-May-23 07:33N 52°49' E 004°28'3 3.0
2016-May-23 06:33N 52°47' E 004°25'11 9.1
2016-May-23 05:23N 52°43' E 004°09'28 4.8
2016-May-22 23:29N 52°26' E 003°31'7 7.5
2016-May-22 22:32N 52°29' E 003°41'5 4.6
2016-May-22 21:33N 52°31' E 003°48'3 3.2
2016-May-22 20:33N 52°33' E 003°53'4 3.7
2016-May-22 19:33N 52°33' E 003°59'4 4.3
2016-May-22 18:33N 52°33' E 004°06'3 3.3
2016-May-22 17:33N 52°32' E 004°11'4 3.8
2016-May-22 16:33N 52°30' E 004°16'3 2.6
2016-May-22 15:33N 52°28' E 004°13'4 4.5
2016-May-22 14:33N 52°25' E 004°08'5 5.1
2016-May-22 13:33N 52°21' E 004°03'4 3.6
2016-May-22 12:33N 52°18' E 004°03'2 2.5
2016-May-22 11:34N 52°16' E 004°05'6 6.4
2016-May-22 10:33N 52°11' E 004°11'5 5.1
2016-May-22 09:31N 52°06' E 004°16'0 0.0
2016-May-22 08:31N 52°06' E 004°16'0 0.0
2016-May-22 07:34N 52°06' E 004°16'0 0.0
2016-May-22 06:34N 52°06' E 004°16'0 0.0
2016-May-22 05:33N 52°06' E 004°16'0 0.0
2016-May-22 04:33N 52°06' E 004°16'0 0.0
2016-May-22 03:33N 52°06' E 004°16'0 0.0
2016-May-22 02:33N 52°06' E 004°16'0 0.0
2016-May-22 01:33N 52°06' E 004°16'0 0.0
2016-May-22 00:30N 52°06' E 004°16'0 0.0
2016-May-21 23:33N 52°06' E 004°16'0 0.0
2016-May-21 22:33N 52°06' E 004°16'0 0.0
2016-May-21 21:33N 52°06' E 004°16'0 0.0
2016-May-21 20:33N 52°06' E 004°16'0 0.0
2016-May-21 19:33N 52°06' E 004°16'0 0.0
2016-May-21 18:33N 52°06' E 004°16'0 0.0
2016-May-21 17:33N 52°06' E 004°16'0 0.0
2016-May-21 16:33N 52°06' E 004°16'0 0.0
2016-May-21 15:33N 52°06' E 004°16'0 0.0
2016-May-21 14:33N 52°06' E 004°16'3 2.6
2016-May-21 13:33N 52°07' E 004°12'7 7.3
2016-May-21 12:33N 52°07' E 004°00'7 6.5
2016-May-21 11:33N 52°07' E 003°49'6 5.5
2016-May-21 10:33N 52°06' E 003°58'8 8.4
2016-May-21 09:34N 52°06' E 004°12'2 2.3
2016-May-21 08:33N 52°06' E 004°16'0 0.0
2016-May-21 07:33N 52°06' E 004°16'0 0.0
2016-May-21 06:33N 52°06' E 004°16'0 0.0
2016-May-21 05:33N 52°06' E 004°16'0 0.0
2016-May-21 04:33N 52°06' E 004°16'0 0.0
2016-May-21 03:33N 52°06' E 004°16'0 0.0
2016-May-21 02:33N 52°06' E 004°16'0 0.0
2016-May-21 01:33N 52°06' E 004°16'0 0.0
2016-May-21 00:30N 52°06' E 004°16'0 0.0
2016-May-20 23:33N 52°06' E 004°16'0 0.0
2016-May-20 22:33N 52°06' E 004°16'0 0.0
2016-May-20 21:33N 52°06' E 004°16'0 0.0
2016-May-20 20:33N 52°06' E 004°16'0 0.0
2016-May-20 19:33N 52°06' E 004°16'0 0.0
2016-May-20 18:33N 52°06' E 004°16'0 0.0
2016-May-20 17:33N 52°06' E 004°16'0 0.0
2016-May-20 16:33N 52°06' E 004°16'0 0.0
2016-May-20 15:30N 52°06' E 004°16'0 0.0
2016-May-20 14:33N 52°06' E 004°16'0 0.0
2016-May-20 13:33N 52°06' E 004°16'0 0.0
2016-May-20 12:33N 52°06' E 004°16'1 0.9
2016-May-20 11:33N 52°07' E 004°15'0 0.2
2016-May-20 10:33N 52°07' E 004°15'1 1.1
2016-May-20 09:34N 52°08' E 004°15'1 1.4
2016-May-20 08:33N 52°07' E 004°15'1 0.7
2016-May-20 07:33N 52°07' E 004°15'4 3.7
2016-May-20 06:33N 52°10' E 004°10'1 0.8
2016-May-20 05:33N 52°10' E 004°10'3 2.6
2016-May-20 04:33N 52°09' E 004°13'8 8.1
2016-May-20 03:33N 52°15' E 004°04'10 9.9
2016-May-20 02:33N 52°20' E 003°50'11 9.6
2016-May-20 01:25N 52°24' E 003°33'6 1.9
2016-May-19 22:33N 52°30' E 003°36'8 8.1
2016-May-19 21:33N 52°31' E 003°49'8 8.5
2016-May-19 20:33N 52°30' E 004°03'7 7.4
2016-May-19 19:33N 52°30' E 004°15'5 4.6
2016-May-19 18:33N 52°30' E 004°22'2 2.1
2016-May-19 17:33N 52°30' E 004°26'3 3.2
2016-May-19 16:33N 52°27' E 004°28'2 1.6
2016-May-19 15:33N 52°25' E 004°28'5 4.8
2016-May-19 14:33N 52°30' E 004°26'4 4.1
2016-May-19 13:33N 52°34' E 004°24'2 2.5
2016-May-19 12:33N 52°36' E 004°24'5 5.1
2016-May-19 11:33N 52°35' E 004°32'5 5.2
2016-May-19 10:34N 52°40' E 004°33'4 4.3
2016-May-19 09:33N 52°44' E 004°34'4 4.0
2016-May-19 08:33N 52°48' E 004°36'6 5.9
2016-May-19 07:33N 52°54' E 004°39'7 6.4
2016-May-19 06:28N 52°58' E 004°47'0 0.2
2016-May-19 04:26N 52°58' E 004°47'0 0.0
2016-May-19 03:17N 52°58' E 004°47'0 0.0
2016-May-19 02:32N 52°58' E 004°47'0 0.0
2016-May-19 00:14N 52°58' E 004°47'0 0.0
2016-May-18 23:29N 52°58' E 004°47'0 0.0
2016-May-18 22:32N 52°58' E 004°47'0 0.0
2016-May-18 21:32N 52°58' E 004°47'0 0.0
2016-May-18 20:32N 52°58' E 004°47'0 0.0
2016-May-18 18:08N 52°58' E 004°47'0 0.0
2016-May-18 17:29N 52°58' E 004°47'0 0.0
2016-May-18 16:32N 52°58' E 004°47'0 0.0
2016-May-18 13:19N 52°58' E 004°47'2 2.8
2016-May-18 12:28N 52°60' E 004°48'0 0.4
2016-May-18 11:29N 53°00' E 004°49'0 0.5
2016-May-18 10:33N 52°60' E 004°48'0 0.1
2016-May-18 09:32N 52°60' E 004°48'0 0.1
2016-May-18 08:33N 53°00' E 004°48'4 3.8
2016-May-18 07:27N 52°57' E 004°43'5 5.5
2016-May-18 06:32N 52°53' E 004°38'3 2.7
2016-May-18 05:33N 52°52' E 004°34'5 4.6
2016-May-18 04:29N 52°55' E 004°27'30 4.9
2016-May-17 22:25N 52°49' E 003°39'10 5.4
2016-May-17 20:33N 52°41' E 003°48'4 3.9
2016-May-17 19:29N 52°37' E 003°53'3 3.1
2016-May-17 18:33N 52°35' E 003°55'4 3.6
2016-May-17 17:33N 52°32' E 003°58'  

Dump ship's entire track history